Time;durP1;ratioP1;P1;durP2;ratioP2;P2;SDS_P1;SDS_P2;PMS_P1;PMS_P2;Temp;Humidity;BMP_temperature;BMP_pressure;BME280_temperature;BME280_humidity;BME280_pressure;Samples;Min_cycle;Max_cycle;Signal;HPM_P1;HPM_P2
2022/09/09 00:03:05;;;;;;;3.28;1.90;;;10.20;99.90;;;;;;8260628;28;20026;-79
2022/09/09 00:07:14;;;;;;;3.35;2.05;;;10.50;99.90;;;;;;8261732;28;20500;-80
2022/09/09 00:11:21;;;;;;;2.53;1.67;;;10.60;99.90;;;;;;8263306;28;20018;-80
2022/09/09 00:15:37;;;;;;;3.35;2.00;;;10.40;99.90;;;;;;8264355;28;20701;-81
2022/09/09 00:19:58;;;;;;;3.13;2.08;;;10.30;99.90;;;;;;8264440;28;20034;-80
2022/09/09 00:23:58;;;;;;;;;;;10.30;99.90;;;;;;8262955;28;20467;-79
2022/09/09 00:27:59;;;;;;;5.75;2.33;;;10.30;99.90;;;;;;8246785;28;19983;-80
2022/09/09 00:32:11;;;;;;;2.60;2.25;;;10.30;99.90;;;;;;8248450;28;20117;-81
2022/09/09 00:36:20;;;;;;;4.90;2.35;;;10.50;99.90;;;;;;8249439;28;20030;-80
2022/09/09 00:40:35;;;;;;;4.13;2.50;;;10.40;99.90;;;;;;8249145;28;20057;-80
2022/09/09 00:44:39;;;;;;;3.97;2.50;;;10.40;99.90;;;;;;8268952;28;20090;-80
2022/09/09 00:48:58;;;;;;;3.47;2.60;;;10.30;99.90;;;;;;8269918;28;20026;-81
2022/09/09 00:53:09;;;;;;;3.50;2.80;;;10.40;99.90;;;;;;8265553;28;20027;-80
2022/09/09 00:57:28;;;;;;;3.90;2.35;;;10.30;99.90;;;;;;8260537;28;20057;-80
2022/09/09 01:01:28;;;;;;;3.15;2.53;;;10.40;99.90;;;;;;8266387;28;20081;-80
2022/09/09 01:05:44;;;;;;;5.90;2.83;;;10.30;99.90;;;;;;8245285;28;20042;-80
2022/09/09 01:09:51;;;;;;;3.25;2.55;;;10.30;99.90;;;;;;8261562;28;20635;-80
2022/09/09 01:14:13;;;;;;;3.85;3.28;;;10.30;99.90;;;;;;8248327;28;20022;-80
2022/09/09 01:18:19;;;;;;;6.05;2.80;;;10.40;99.90;;;;;;8237626;28;20030;-80
2022/09/09 01:22:37;;;;;;;4.75;2.80;;;10.30;99.90;;;;;;8259010;28;20031;-79
2022/09/09 01:26:41;;;;;;;5.32;3.22;;;10.10;99.90;;;;;;8256104;28;20416;-79
2022/09/09 01:30:42;;;;;;;3.45;3.08;;;10.00;99.90;;;;;;8244756;28;20030;-80
2022/09/09 01:34:42;;;;;;;4.85;3.17;;;10.00;99.90;;;;;;8261730;28;20030;-79
2022/09/09 01:38:43;;;;;;;3.40;2.92;;;10.00;99.90;;;;;;8262259;28;20041;-81
2022/09/09 01:42:43;;;;;;;5.45;3.17;;;10.00;99.90;;;;;;8247023;28;20031;-80
2022/09/09 01:46:44;;;;;;;5.57;3.05;;;10.00;99.90;;;;;;8265488;28;20034;-80
2022/09/09 01:50:45;;;;;;;6.22;3.10;;;10.00;99.90;;;;;;8260386;28;20030;-80
2022/09/09 01:54:46;;;;;;;5.75;3.35;;;9.90;99.90;;;;;;8264339;28;20014;-80
2022/09/09 01:59:17;;;;;;;4.90;3.08;;;10.00;99.90;;;;;;8259416;28;20105;-80
2022/09/09 02:03:26;;;;;;;4.45;3.05;;;10.20;99.90;;;;;;8258128;28;20057;-79
2022/09/09 02:07:40;;;;;;;5.22;3.47;;;10.10;99.90;;;;;;8261901;28;20022;-80
2022/09/09 02:11:47;;;;;;;5.72;3.17;;;10.20;99.90;;;;;;8261568;28;20037;-80
2022/09/09 02:15:51;;;;;;;3.70;3.05;;;10.40;99.90;;;;;;8258500;28;20065;-80
2022/09/09 02:19:58;;;;;;;3.35;2.83;;;10.30;99.90;;;;;;8257165;28;20026;-79
2022/09/09 02:24:04;;;;;;;7.53;3.05;;;10.20;99.90;;;;;;8243553;28;20041;-80
2022/09/09 02:28:07;;;;;;;3.20;2.72;;;9.90;99.90;;;;;;8245365;28;20091;-80
2022/09/09 02:32:22;;;;;;;7.53;3.53;;;9.90;99.90;;;;;;8243719;28;20018;-80
2022/09/09 02:36:26;;;;;;;5.38;3.17;;;9.80;99.90;;;;;;8257937;28;20030;-80
2022/09/09 02:40:27;;;;;;;5.32;3.08;;;9.70;99.90;;;;;;8240710;28;20030;-80
2022/09/09 02:44:28;;;;;;;4.53;3.08;;;9.60;99.90;;;;;;8243499;28;20543;-80
2022/09/09 02:48:37;;;;;;;5.70;3.38;;;9.80;99.90;;;;;;8239765;28;20132;-80
2022/09/09 02:53:01;;;;;;;5.70;3.42;;;10.00;99.90;;;;;;8260199;28;20049;-80
2022/09/09 02:57:17;;;;;;;6.38;3.30;;;10.30;99.90;;;;;;8259146;28;20054;-80
2022/09/09 03:01:17;;;;;;;5.25;3.33;;;10.20;99.90;;;;;;8244689;28;20018;-79
2022/09/09 03:05:18;;;;;;;4.85;3.08;;;10.10;99.90;;;;;;8266927;28;20130;-80
2022/09/09 03:09:18;;;;;;;6.10;3.10;;;10.10;99.90;;;;;;8270148;28;20399;-80
2022/09/09 03:13:19;;;;;;;4.15;3.10;;;10.00;99.90;;;;;;8265277;28;20022;-78
2022/09/09 03:17:20;;;;;;;6.78;4.03;;;10.00;99.90;;;;;;8248779;28;20030;-80
2022/09/09 03:21:20;;;;;;;6.05;3.60;;;10.20;99.90;;;;;;8248703;28;20109;-80
2022/09/09 03:25:26;;;;;;;4.85;3.13;;;10.40;99.90;;;;;;8245341;28;20026;-81
2022/09/09 03:29:26;;;;;;;3.78;3.13;;;10.60;99.90;;;;;;8248311;28;20018;-81
2022/09/09 03:33:27;;;;;;;10.30;2.95;;;10.70;99.90;;;;;;8246582;28;20200;-80
2022/09/09 03:37:28;;;;;;;3.78;2.90;;;10.90;99.90;;;;;;8246474;28;20023;-80
2022/09/09 03:41:29;;;;;;;4.03;2.92;;;11.10;99.90;;;;;;8263838;28;20041;-79
2022/09/09 03:45:30;;;;;;;7.03;3.22;;;11.60;99.90;;;;;;8266463;28;20054;-80
2022/09/09 03:49:30;;;;;;;2.63;2.30;;;11.50;99.90;;;;;;8248136;28;20026;-79
2022/09/09 03:53:31;;;;;;;2.40;2.20;;;11.80;99.90;;;;;;8248277;28;20026;-81
2022/09/09 03:57:34;;;;;;;2.65;2.17;;;11.70;99.90;;;;;;8265429;28;20027;-79
2022/09/09 04:01:35;;;;;;;3.35;2.65;;;11.50;99.90;;;;;;8262666;28;20054;-79
2022/09/09 04:05:39;;;;;;;4.82;2.63;;;11.40;99.90;;;;;;8264518;28;20038;-79
2022/09/09 04:09:39;;;;;;;4.78;2.30;;;11.50;99.90;;;;;;8242669;28;20022;-80
2022/09/09 04:13:41;;;;;;;9.73;2.78;;;11.20;99.90;;;;;;8254270;28;20109;-80
2022/09/09 04:17:42;;;;;;;6.93;2.80;;;11.20;99.90;;;;;;8260617;28;20019;-79
2022/09/09 04:21:43;;;;;;;3.28;2.67;;;11.10;99.90;;;;;;8244810;28;20038;-79
2022/09/09 04:25:48;;;;;;;3.50;2.42;;;10.90;99.90;;;;;;8255625;28;20086;-80
2022/09/09 04:29:48;;;;;;;8.43;2.55;;;11.00;99.90;;;;;;8231922;28;20037;-80
2022/09/09 04:33:50;;;;;;;7.65;3.10;;;11.20;99.90;;;;;;8237715;28;20022;-80
2022/09/09 04:37:50;;;;;;;7.88;2.95;;;11.20;99.90;;;;;;8242827;28;20419;-80
2022/09/09 04:41:51;;;;;;;6.20;3.20;;;11.10;99.90;;;;;;8257421;28;20149;-79
2022/09/09 04:45:52;;;;;;;6.80;3.53;;;11.10;99.90;;;;;;8240612;28;20488;-80
2022/09/09 04:49:54;;;;;;;5.63;3.53;;;11.10;99.90;;;;;;8245133;28;20048;-80
2022/09/09 04:53:54;;;;;;;6.40;3.33;;;11.10;99.90;;;;;;8237653;28;20629;-81
2022/09/09 04:57:55;;;;;;;3.83;3.15;;;11.30;99.90;;;;;;8238157;28;20042;-81
2022/09/09 05:01:55;;;;;;;5.53;3.50;;;11.30;99.90;;;;;;8245619;28;20029;-81
2022/09/09 05:06:04;;;;;;;4.10;3.03;;;11.50;99.90;;;;;;8242055;28;20030;-81
2022/09/09 05:10:05;;;;;;;4.40;3.20;;;11.50;99.90;;;;;;8260275;28;20073;-81
2022/09/09 05:14:06;;;;;;;6.82;3.47;;;11.70;99.90;;;;;;8242934;28;20036;-85
2022/09/09 05:18:07;;;;;;;3.75;3.17;;;11.70;99.90;;;;;;8245431;28;20489;-84
2022/09/09 05:22:08;;;;;;;11.23;3.55;;;11.80;99.90;;;;;;8248005;28;20117;-84
2022/09/09 05:26:13;;;;;;;4.28;2.95;;;12.00;99.90;;;;;;8238826;28;20037;-83
2022/09/09 05:30:13;;;;;;;4.90;2.97;;;12.20;99.90;;;;;;8244608;28;20045;-83
2022/09/09 05:34:14;;;;;;;6.18;2.90;;;12.50;99.90;;;;;;8258020;28;20019;-84
2022/09/09 05:38:14;;;;;;;4.50;3.15;;;12.50;99.90;;;;;;8239549;28;20026;-84
2022/09/09 05:42:15;;;;;;;4.72;3.08;;;12.80;99.90;;;;;;8239031;28;20033;-83
2022/09/09 05:46:21;;;;;;;5.72;3.00;;;12.90;99.90;;;;;;8257854;28;20511;-83
2022/09/09 05:50:22;;;;;;;6.43;2.70;;;12.90;99.90;;;;;;8258390;28;20022;-83
2022/09/09 05:54:23;;;;;;;3.05;2.58;;;12.90;99.90;;;;;;8240059;28;20045;-83
2022/09/09 05:58:24;;;;;;;4.82;2.70;;;12.90;99.90;;;;;;8236892;28;20416;-84
2022/09/09 06:02:24;;;;;;;4.50;2.55;;;12.90;99.90;;;;;;8259702;28;20026;-84
2022/09/09 06:06:30;;;;;;;6.35;3.13;;;12.90;99.90;;;;;;8242847;28;20018;-83
2022/09/09 06:10:30;;;;;;;3.65;2.60;;;13.10;99.90;;;;;;8243403;28;20037;-82
2022/09/09 06:14:31;;;;;;;3.97;2.40;;;13.50;99.90;;;;;;8262427;28;20490;-83
2022/09/09 06:18:31;;;;;;;5.40;2.50;;;13.70;99.90;;;;;;8264346;28;20030;-83
2022/09/09 06:22:32;;;;;;;3.15;2.00;;;13.90;99.90;;;;;;8236011;28;20034;-83
2022/09/09 06:26:34;;;;;;;4.35;2.00;;;14.00;99.90;;;;;;8260756;28;20583;-83
2022/09/09 06:30:36;;;;;;;5.80;2.08;;;14.10;99.90;;;;;;8247066;28;20026;-83
2022/09/09 06:34:36;;;;;;;3.15;1.60;;;14.10;99.90;;;;;;8248406;28;20071;-83
2022/09/09 06:38:37;;;;;;;2.53;1.10;;;14.10;99.90;;;;;;8272919;28;20472;-82
2022/09/09 06:42:38;;;;;;;2.63;1.27;;;14.10;99.90;;;;;;8268498;28;20154;-81
2022/09/09 06:46:39;;;;;;;3.42;1.20;;;14.20;99.90;;;;;;8266374;28;20081;-82
2022/09/09 06:50:39;;;;;;;2.60;1.08;;;14.20;99.90;;;;;;8250717;28;20023;-81
2022/09/09 06:54:40;;;;;;;1.40;1.10;;;14.10;99.90;;;;;;8267298;28;20220;-82
2022/09/09 06:58:43;;;;;;;2.38;1.00;;;14.20;99.90;;;;;;8266060;28;20061;-81
2022/09/09 07:02:44;;;;;;;1.50;0.90;;;14.50;99.90;;;;;;8248338;28;20034;-82
2022/09/09 07:06:46;;;;;;;5.63;1.20;;;15.00;99.90;;;;;;8249025;28;20093;-81
2022/09/09 07:10:47;;;;;;;1.60;1.02;;;15.30;99.90;;;;;;8246079;28;20107;-82
2022/09/09 07:14:47;;;;;;;3.83;1.30;;;15.40;99.90;;;;;;8267791;28;20018;-82
2022/09/09 07:18:48;;;;;;;3.45;1.10;;;15.70;99.90;;;;;;8268948;28;20026;-81
2022/09/09 07:22:49;;;;;;;1.35;0.85;;;16.20;99.90;;;;;;8268292;28;20034;-82
2022/09/09 07:26:49;;;;;;;1.40;0.98;;;16.70;99.90;;;;;;8265956;28;20034;-81
2022/09/09 07:30:58;;;;;;;1.80;0.80;;;16.90;99.90;;;;;;8249834;28;20023;-82
2022/09/09 07:34:59;;;;;;;2.55;1.10;;;16.90;99.90;;;;;;8251011;28;20031;-83
2022/09/09 07:39:09;;;;;;;1.65;0.90;;;17.10;99.90;;;;;;8254167;28;20030;-82
2022/09/09 07:43:10;;;;;;;2.97;1.00;;;17.40;99.90;;;;;;8248030;28;20077;-81
2022/09/09 07:47:11;;;;;;;2.78;0.90;;;17.70;99.90;;;;;;8263290;28;20038;-82
2022/09/09 07:51:19;;;;;;;3.70;0.90;;;17.80;99.90;;;;;;8270033;28;20068;-82
2022/09/09 07:55:21;;;;;;;3.95;1.30;;;18.00;99.90;;;;;;8271479;28;20511;-82
2022/09/09 07:59:21;;;;;;;2.35;1.02;;;18.20;99.90;;;;;;8264257;28;20127;-82
2022/09/09 08:03:22;;;;;;;2.15;0.85;;;18.60;99.90;;;;;;8270675;28;20010;-83
2022/09/09 08:07:23;;;;;;;2.35;1.02;;;18.70;99.90;;;;;;8269124;28;20512;-82
2022/09/09 08:11:25;;;;;;;1.73;0.80;;;18.80;99.90;;;;;;8245424;28;20022;-83
2022/09/09 08:15:26;;;;;;;1.63;0.73;;;19.00;99.90;;;;;;8249937;28;20022;-82
2022/09/09 08:19:29;;;;;;;1.60;0.88;;;19.10;99.90;;;;;;8252935;28;20054;-82
2022/09/09 08:23:29;;;;;;;2.72;1.02;;;19.40;99.90;;;;;;8290094;23;20381;-81
2022/09/09 08:27:31;;;;;;;1.98;0.70;;;19.60;99.90;;;;;;8281309;28;20053;-81
2022/09/09 08:31:36;;;;;;;3.25;1.08;;;19.90;99.90;;;;;;8286985;28;20037;-82
2022/09/09 08:35:37;;;;;;;2.30;0.90;;;20.10;99.90;;;;;;8311763;28;20059;-81
2022/09/09 08:39:38;;;;;;;2.03;1.00;;;20.40;99.90;;;;;;8294726;28;20557;-82
2022/09/09 08:43:40;;;;;;;1.45;0.70;;;20.30;99.90;;;;;;8309642;28;20041;-81
2022/09/09 08:47:53;;;;;;;4.60;0.80;;;20.10;99.90;;;;;;8299062;28;20032;-81
2022/09/09 08:51:55;;;;;;;1.92;0.77;;;20.50;99.90;;;;;;8294985;28;20018;-81
2022/09/09 08:56:09;;;;;;;2.90;0.93;;;20.70;99.90;;;;;;8319471;28;20030;-82
2022/09/09 09:00:10;;;;;;;5.43;0.98;;;20.30;99.90;;;;;;8327523;28;20022;-83
2022/09/09 09:04:36;;;;;;;2.42;1.00;;;20.40;99.90;;;;;;8285954;28;20022;-83
2022/09/09 09:09:22;;;;;;;2.75;0.75;;;21.00;99.90;;;;;;8299851;28;20034;-82
2022/09/09 09:13:36;;;;;;;2.13;0.70;;;21.40;99.90;;;;;;8222874;28;20780;-83
2022/09/09 09:17:38;;;;;;;3.85;1.05;;;21.50;99.90;;;;;;8292205;28;20120;-83
2022/09/09 09:21:50;;;;;;;4.45;1.15;;;21.60;99.90;;;;;;8314193;28;20149;-81
2022/09/09 09:25:57;;;;;;;5.35;1.17;;;21.60;99.90;;;;;;8312468;28;20503;-82
2022/09/09 09:30:01;;;;;;;1.98;0.73;;;22.10;99.90;;;;;;8290432;28;20164;-82
2022/09/09 09:34:02;;;;;;;2.22;1.02;;;22.50;99.90;;;;;;8305067;28;20026;-82
2022/09/09 09:38:33;;;;;;;1.98;0.93;;;22.70;99.90;;;;;;8302063;28;20018;-81
2022/09/09 09:42:34;;;;;;;;;;;22.50;99.90;;;;;;8310620;28;20519;-81
2022/09/09 09:46:34;;;;;;;2.45;1.45;;;22.20;99.90;;;;;;8298051;28;19912;-83
2022/09/09 09:50:46;;;;;;;5.05;1.00;;;22.70;99.90;;;;;;8292817;28;20092;-83
2022/09/09 09:54:46;;;;;;;2.80;0.85;;;22.50;99.90;;;;;;8309059;28;20029;-82
2022/09/09 09:58:52;;;;;;;2.97;1.10;;;22.80;99.90;;;;;;8308316;28;20103;-82
2022/09/09 10:02:53;;;;;;;1.55;0.70;;;23.00;99.90;;;;;;8301063;28;20562;-83
2022/09/09 10:06:53;;;;;;;4.50;0.70;;;23.30;99.90;;;;;;8311661;28;20049;-83
2022/09/09 10:10:59;;;;;;;2.08;0.70;;;23.10;99.90;;;;;;8324720;28;20384;-83
2022/09/09 10:15:05;;;;;;;3.95;0.90;;;23.30;99.90;;;;;;8330106;28;20037;-82
2022/09/09 10:19:14;;;;;;;2.53;0.85;;;22.90;99.90;;;;;;8303431;28;20081;-83
2022/09/09 10:23:30;;;;;;;1.95;0.77;;;22.90;99.90;;;;;;8284454;28;20515;-82
2022/09/09 10:27:36;;;;;;;2.67;0.88;;;23.00;99.90;;;;;;8289806;28;20053;-82
2022/09/09 10:32:10;;;;;;;2.67;0.80;;;23.20;99.90;;;;;;8285261;28;20029;-83
2022/09/09 10:36:22;;;;;;;0.85;0.65;;;24.70;99.90;;;;;;8286283;28;20411;-82
2022/09/09 10:40:42;;;;;;;3.72;0.85;;;24.60;99.90;;;;;;8303141;28;20022;-83
2022/09/09 10:44:53;;;;;;;1.13;0.70;;;25.50;99.90;;;;;;8290233;28;20380;-82
2022/09/09 10:49:38;;;;;;;2.25;0.90;;;25.10;99.90;;;;;;8296966;28;20029;-82
2022/09/09 10:53:57;;;;;;;2.90;1.05;;;23.20;99.90;;;;;;8287262;28;20640;-83
2022/09/09 10:58:00;;;;;;;3.20;1.50;;;23.90;99.90;;;;;;8288461;28;20034;-81
2022/09/09 11:02:16;;;;;;;2.17;0.70;;;24.60;99.90;;;;;;8310320;28;20032;-83
2022/09/09 11:06:20;;;;;;;2.83;0.80;;;25.30;99.90;;;;;;8288201;28;20052;-82
2022/09/09 11:10:30;;;;;;;1.60;0.60;;;25.70;99.90;;;;;;8299356;28;20103;-83
2022/09/09 11:14:53;;;;;;;1.75;0.90;;;26.60;99.90;;;;;;8291097;28;20443;-80
2022/09/09 11:19:05;;;;;;;0.90;0.60;;;27.00;99.90;;;;;;8309520;28;20100;-82
2022/09/09 11:23:13;;;;;;;1.65;0.50;;;26.40;99.90;;;;;;8293929;28;20049;-82
2022/09/09 11:27:20;;;;;;;1.63;0.75;;;23.80;99.90;;;;;;8292798;28;20112;-81
2022/09/09 11:31:53;;;;;;;1.65;0.85;;;24.50;99.90;;;;;;8308441;28;20075;-82
2022/09/09 11:36:21;;;;;;;1.42;0.82;;;26.20;99.90;;;;;;8313073;28;20029;-82
2022/09/09 11:40:25;;;;;;;1.30;0.70;;;26.50;99.90;;;;;;8321941;28;20030;-83
2022/09/09 11:44:30;;;;;;;1.48;0.60;;;26.80;99.90;;;;;;8307617;28;20033;-81
2022/09/09 11:48:45;;;;;;;3.70;0.90;;;27.20;99.90;;;;;;8324074;28;20589;-82
2022/09/09 11:52:48;;;;;;;1.75;0.60;;;28.20;97.70;;;;;;8306243;28;20026;-82
2022/09/09 11:56:49;;;;;;;2.88;0.75;;;28.10;97.50;;;;;;8300706;28;20033;-83
2022/09/09 12:00:50;;;;;;;0.93;0.68;;;28.30;97.50;;;;;;8326276;28;20029;-82
2022/09/09 12:05:13;;;;;;;2.80;0.60;;;28.80;94.30;;;;;;8335377;28;20037;-83
2022/09/09 12:09:29;;;;;;;2.90;0.57;;;27.80;92.00;;;;;;8298753;28;20026;-85
2022/09/09 12:13:31;;;;;;;2.17;0.68;;;25.30;96.10;;;;;;8300932;28;20036;-84
2022/09/09 12:18:05;;;;;;;3.22;0.82;;;23.90;98.50;;;;;;8313726;28;20426;-84
2022/09/09 12:22:28;;;;;;;3.08;0.77;;;22.90;99.90;;;;;;8278254;28;20065;-82
2022/09/09 12:26:55;;;;;;;1.55;0.57;;;22.50;99.90;;;;;;8295107;28;20042;-83
2022/09/09 12:30:58;;;;;;;2.05;0.60;;;25.40;99.90;;;;;;8313697;28;20508;-85
2022/09/09 12:35:01;;;;;;;1.85;0.70;;;24.10;99.90;;;;;;8307871;28;20028;-84
2022/09/09 12:39:30;;;;;;;1.55;0.90;;;23.30;99.90;;;;;;8297010;28;20088;-85
2022/09/09 12:43:31;;;;;;;1.58;0.88;;;22.90;99.90;;;;;;8304197;28;20034;-85
2022/09/09 12:47:45;;;;;;;2.67;0.63;;;24.30;99.90;;;;;;8315558;28;20030;-86
2022/09/09 12:51:46;;;;;;;0.75;0.63;;;27.90;98.20;;;;;;8317670;28;20573;-85
2022/09/09 12:56:15;;;;;;;2.38;0.77;;;27.80;96.90;;;;;;8301442;28;20026;-83
2022/09/09 13:00:24;;;;;;;3.72;0.80;;;27.60;96.10;;;;;;8308678;28;20515;-84
2022/09/09 13:04:25;;;;;;;2.42;0.75;;;26.40;97.90;;;;;;8299613;28;20037;-85
2022/09/09 13:08:26;;;;;;;2.17;0.90;;;25.00;99.90;;;;;;8288967;28;20030;-85
2022/09/09 13:12:27;;;;;;;3.42;1.55;;;25.70;99.90;;;;;;8302787;28;20026;-85
2022/09/09 13:16:33;;;;;;;3.38;2.20;;;26.10;99.90;;;;;;8299420;28;20500;-85
2022/09/09 13:20:33;;;;;;;2.92;1.40;;;27.30;99.00;;;;;;8311534;28;20026;-85
2022/09/09 13:24:35;;;;;;;2.22;1.15;;;29.10;95.40;;;;;;8307820;28;20633;-85
2022/09/09 13:28:35;;;;;;;1.30;0.70;;;29.20;95.20;;;;;;8295479;28;20071;-86
2022/09/09 13:32:36;;;;;;;4.43;2.17;;;30.00;87.40;;;;;;8300564;28;20040;-86
2022/09/09 13:36:36;;;;;;;2.65;0.70;;;30.50;86.40;;;;;;8307003;28;20324;-86
2022/09/09 13:40:38;;;;;;;1.08;0.60;;;30.50;85.80;;;;;;8297303;28;20053;-86
2022/09/09 13:44:41;;;;;;;1.63;0.60;;;30.50;80.90;;;;;;8315526;28;20411;-86
2022/09/09 13:48:41;;;;;;;3.80;1.13;;;29.00;81.90;;;;;;8295438;28;20507;-86
2022/09/09 13:52:42;;;;;;;1.70;0.80;;;29.30;87.50;;;;;;8294233;28;20026;-85
2022/09/09 13:56:43;;;;;;;2.35;0.75;;;31.00;78.30;;;;;;8311779;28;20042;-86
2022/09/09 14:00:45;;;;;;;1.73;0.65;;;31.00;75.00;;;;;;8297173;28;20033;-86
2022/09/09 14:04:45;;;;;;;0.80;0.40;;;32.20;72.20;;;;;;8303873;28;20029;-85
2022/09/09 14:08:46;;;;;;;1.38;0.50;;;32.50;67.00;;;;;;8321169;28;20033;-86
2022/09/09 14:12:46;;;;;;;1.10;0.65;;;31.20;70.10;;;;;;8303774;28;20017;-86
2022/09/09 14:16:47;;;;;;;2.15;0.68;;;31.30;66.60;;;;;;8314539;28;20029;-86
2022/09/09 14:20:47;;;;;;;1.20;0.60;;;30.30;72.90;;;;;;8322331;28;20030;-85
2022/09/09 14:24:48;;;;;;;1.38;0.60;;;31.40;67.80;;;;;;8289551;28;20038;-86
2022/09/09 14:28:49;;;;;;;2.55;0.60;;;31.30;68.10;;;;;;8286896;28;20045;-86
2022/09/09 14:32:50;;;;;;;1.10;0.50;;;31.40;67.00;;;;;;8298684;28;20029;-87
2022/09/09 14:36:51;;;;;;;1.55;0.40;;;29.80;69.10;;;;;;8294526;28;20030;-86
2022/09/09 14:40:51;;;;;;;2.95;0.80;;;30.00;71.40;;;;;;8307240;28;20030;-85
2022/09/09 14:44:52;;;;;;;0.43;0.40;;;30.00;71.80;;;;;;8320145;28;20033;-85
2022/09/09 14:48:53;;;;;;;2.88;0.63;;;30.40;72.00;;;;;;8294085;28;20563;-86
2022/09/09 14:52:54;;;;;;;0.60;0.50;;;27.60;78.50;;;;;;8313505;28;20029;-80
2022/09/09 14:56:54;;;;;;;2.03;0.70;;;25.00;86.50;;;;;;8319699;28;20029;-83
2022/09/09 15:00:55;;;;;;;2.45;0.88;;;24.00;91.10;;;;;;8289909;28;20025;-83
2022/09/09 15:04:57;;;;;;;1.90;0.57;;;24.10;91.30;;;;;;8319359;28;20503;-84
2022/09/09 15:08:58;;;;;;;2.05;1.02;;;23.50;93.10;;;;;;8309228;28;20373;-86
2022/09/09 15:12:59;;;;;;;3.08;0.80;;;22.90;94.50;;;;;;8286948;28;20026;-84
2022/09/09 15:16:59;;;;;;;1.60;0.70;;;22.50;96.50;;;;;;8291374;28;20091;-85
2022/09/09 15:21:02;;;;;;;1.95;0.63;;;22.10;98.10;;;;;;8286449;28;20349;-85
2022/09/09 15:25:03;;;;;;;11.52;2.85;;;22.00;97.70;;;;;;8302696;28;20042;-86
2022/09/09 15:29:04;;;;;;;1.67;0.60;;;22.20;97.40;;;;;;8307415;28;20036;-85
2022/09/09 15:33:08;;;;;;;23.15;4.38;;;22.20;97.30;;;;;;8300168;28;20018;-85
2022/09/09 15:37:12;;;;;;;1.70;0.70;;;21.80;99.90;;;;;;8286505;28;20056;-85
2022/09/09 15:41:14;;;;;;;2.00;0.70;;;21.50;99.90;;;;;;8317618;28;20025;-85
2022/09/09 15:45:14;;;;;;;1.60;0.60;;;21.10;99.90;;;;;;8294222;28;20483;-85
2022/09/09 15:49:21;;;;;;;1.38;0.55;;;21.20;99.90;;;;;;8298678;28;20026;-87
2022/09/09 15:53:22;;;;;;;2.70;0.70;;;21.50;99.90;;;;;;8312088;28;20021;-85
2022/09/09 15:57:23;;;;;;;4.45;0.90;;;21.60;99.90;;;;;;8324370;28;20038;-85
2022/09/09 16:01:24;;;;;;;1.25;0.70;;;21.50;99.90;;;;;;8313657;28;20036;-84
2022/09/09 16:05:25;;;;;;;1.90;0.63;;;21.70;99.90;;;;;;8304576;28;20517;-85
2022/09/09 16:09:27;;;;;;;1.40;0.60;;;21.20;99.90;;;;;;8287905;28;20033;-83
2022/09/09 16:13:27;;;;;;;2.28;0.82;;;20.80;99.90;;;;;;8305555;28;20018;-82
2022/09/09 16:17:28;;;;;;;2.65;0.80;;;20.70;99.90;;;;;;8287013;28;20022;-81
2022/09/09 16:21:31;;;;;;;2.35;0.70;;;20.60;99.90;;;;;;8324292;28;20052;-82
2022/09/09 16:25:32;;;;;;;2.83;0.82;;;20.50;99.90;;;;;;8287891;28;20089;-85
2022/09/09 16:29:32;;;;;;;2.50;0.68;;;20.00;99.90;;;;;;8301818;28;20075;-82
2022/09/09 16:33:33;;;;;;;2.55;0.80;;;19.70;99.90;;;;;;8329450;28;20034;-82
2022/09/09 16:37:34;;;;;;;1.27;0.70;;;19.40;99.90;;;;;;8320874;28;20018;-81
2022/09/09 16:41:35;;;;;;;3.17;0.70;;;19.40;99.90;;;;;;8319608;28;20060;-82
2022/09/09 16:45:42;;;;;;;1.00;0.65;;;19.20;99.90;;;;;;8299641;28;20030;-82
2022/09/09 16:49:42;;;;;;;1.70;0.70;;;19.00;99.90;;;;;;8323314;28;20390;-82
2022/09/09 16:53:43;;;;;;;1.80;0.57;;;19.10;99.90;;;;;;8322027;28;20026;-82
2022/09/09 16:57:44;;;;;;;0.95;0.40;;;18.90;99.90;;;;;;8307966;28;20053;-83
2022/09/09 17:01:47;;;;;;;0.63;0.40;;;18.70;99.90;;;;;;8283533;28;20037;-87
2022/09/09 17:05:47;;;;;;;0.60;0.43;;;18.60;99.90;;;;;;8305281;28;20092;-87
2022/09/09 17:09:48;;;;;;;1.95;0.50;;;18.30;99.90;;;;;;8310102;28;20057;-83
2022/09/09 17:13:50;;;;;;;1.48;0.55;;;17.90;99.90;;;;;;8283089;28;20041;-82
2022/09/09 17:17:53;;;;;;;4.80;0.50;;;17.40;99.90;;;;;;8289016;28;20113;-83
2022/09/09 17:21:56;;;;;;;3.65;0.77;;;17.00;99.90;;;;;;8286183;28;20126;-83
2022/09/09 17:25:58;;;;;;;0.77;0.32;;;16.50;99.90;;;;;;8292854;28;20044;-82
2022/09/09 17:29:58;;;;;;;2.58;0.40;;;16.10;99.90;;;;;;8292920;28;20117;-83
2022/09/09 17:34:00;;;;;;;2.33;0.50;;;15.70;99.90;;;;;;8305826;28;20029;-83
2022/09/09 17:38:00;;;;;;;2.90;0.40;;;15.40;99.90;;;;;;8298750;28;20026;-83
2022/09/09 17:42:01;;;;;;;0.68;0.50;;;15.30;99.90;;;;;;8296833;28;20026;-83
2022/09/09 17:46:10;;;;;;;0.98;0.50;;;15.20;99.90;;;;;;8294447;28;20030;-82
2022/09/09 17:50:12;;;;;;;2.03;0.60;;;15.10;99.90;;;;;;8285153;28;20560;-82
2022/09/09 17:54:18;;;;;;;1.23;0.65;;;14.90;99.90;;;;;;8304013;28;20055;-82
2022/09/09 17:58:19;;;;;;;1.17;0.70;;;14.70;99.90;;;;;;8305299;28;20057;-83
2022/09/09 18:02:19;;;;;;;2.63;0.57;;;14.40;99.90;;;;;;8311565;28;20060;-83
2022/09/09 18:06:23;;;;;;;0.82;0.63;;;14.20;99.90;;;;;;8289125;28;20032;-83
2022/09/09 18:10:23;;;;;;;1.15;0.55;;;14.20;99.90;;;;;;8294238;28;20080;-83
2022/09/09 18:14:29;;;;;;;3.05;0.80;;;14.10;99.90;;;;;;8310079;28;20029;-83
2022/09/09 18:18:29;;;;;;;1.30;0.68;;;13.90;99.90;;;;;;8276053;28;20041;-83
2022/09/09 18:22:30;;;;;;;0.57;0.40;;;13.80;99.90;;;;;;8279231;28;20022;-83
2022/09/09 18:26:34;;;;;;;5.05;0.70;;;13.70;99.90;;;;;;8295210;28;20034;-83
2022/09/09 18:30:39;;;;;;;1.00;0.50;;;13.60;99.90;;;;;;8302313;28;20026;-82
2022/09/09 18:34:39;;;;;;;0.95;0.52;;;13.40;99.90;;;;;;8294055;28;20034;-81
2022/09/09 18:38:41;;;;;;;0.52;0.50;;;13.00;99.90;;;;;;8302534;28;20045;-82
2022/09/09 18:42:41;;;;;;;2.90;0.88;;;12.80;99.90;;;;;;8296158;28;20052;-83
2022/09/09 18:46:43;;;;;;;1.63;0.70;;;12.90;99.90;;;;;;8314773;28;20037;-83
2022/09/09 18:50:44;;;;;;;3.97;0.90;;;12.80;99.90;;;;;;8317338;28;20037;-82
2022/09/09 18:54:44;;;;;;;2.83;0.70;;;12.60;99.90;;;;;;8295766;28;20025;-83
2022/09/09 18:58:47;;;;;;;5.35;0.65;;;12.70;99.90;;;;;;8309507;28;20037;-82
2022/09/09 19:02:51;;;;;;;3.85;0.70;;;12.60;99.90;;;;;;8308834;28;20479;-82
2022/09/09 19:06:58;;;;;;;1.20;0.60;;;12.60;99.90;;;;;;8291964;28;20408;-82
2022/09/09 19:11:01;;;;;;;2.03;0.70;;;12.60;99.90;;;;;;8292829;28;20116;-82
2022/09/09 19:15:02;;;;;;;1.35;0.65;;;12.80;99.90;;;;;;8310959;28;20186;-83
2022/09/09 19:19:11;;;;;;;5.72;1.83;;;13.10;99.90;;;;;;8293222;28;20030;-82
2022/09/09 19:23:11;;;;;;;16.23;6.10;;;13.30;99.90;;;;;;8305370;28;20399;-82
2022/09/09 19:27:12;;;;;;;8.85;3.95;;;13.40;99.90;;;;;;8289282;28;20036;-82
2022/09/09 19:31:16;;;;;;;7.53;2.70;;;13.60;99.90;;;;;;8307100;28;20117;-82
2022/09/09 19:35:18;;;;;;;56.22;19.13;;;13.70;99.90;;;;;;8314063;28;20037;-82
2022/09/09 19:39:20;;;;;;;26.27;10.80;;;13.70;99.90;;;;;;8295831;28;20030;-83
2022/09/09 19:43:21;;;;;;;13.27;5.75;;;13.80;99.90;;;;;;8294995;28;20044;-82
2022/09/09 19:47:22;;;;;;;10.48;4.70;;;14.00;99.90;;;;;;8313468;28;20025;-82
2022/09/09 19:51:25;;;;;;;11.77;4.80;;;14.00;99.90;;;;;;8312213;28;20018;-82
2022/09/09 19:55:25;;;;;;;7.38;2.92;;;14.00;99.90;;;;;;8292787;28;20053;-82
2022/09/09 19:59:26;;;;;;;14.18;4.97;;;14.10;99.90;;;;;;8312514;28;20056;-83
2022/09/09 20:03:27;;;;;;;12.13;5.32;;;13.70;99.90;;;;;;8312625;28;20113;-82
2022/09/09 20:07:28;;;;;;;3.83;1.20;;;13.40;99.90;;;;;;8310685;28;20025;-82
2022/09/09 20:11:29;;;;;;;3.08;0.80;;;13.20;99.90;;;;;;8292574;28;20040;-82
2022/09/09 20:15:29;;;;;;;3.10;1.10;;;13.00;99.90;;;;;;8295575;28;20025;-82
2022/09/09 20:19:31;;;;;;;1.70;0.63;;;12.90;99.90;;;;;;8295700;28;20462;-82
2022/09/09 20:23:32;;;;;;;1.10;0.60;;;12.90;99.90;;;;;;8299639;28;20040;-82
2022/09/09 20:27:33;;;;;;;1.33;0.60;;;12.80;99.90;;;;;;8332801;23;20069;-91
2022/09/09 20:31:38;;;;;;;1.38;0.70;;;12.70;99.90;;;;;;8335819;28;20375;-91
2022/09/09 20:35:40;;;;;;;1.27;0.80;;;12.70;99.90;;;;;;8304826;28;20025;-92
2022/09/09 20:39:40;;;;;;;0.70;0.70;;;12.50;99.90;;;;;;8289226;28;20025;-92
2022/09/09 20:43:48;;;;;;;0.90;0.70;;;12.50;99.90;;;;;;8288590;28;20026;-91
2022/09/09 20:47:49;;;;;;;0.95;0.50;;;12.40;99.90;;;;;;8290531;28;20049;-91
2022/09/09 20:55:58;;;;;;;0.88;0.70;;;12.50;99.90;;;;;;8262909;28;20050;-80
2022/09/09 20:59:59;;;;;;;3.65;0.75;;;12.30;99.90;;;;;;8254096;28;20026;-80
2022/09/09 21:03:59;;;;;;;2.53;0.80;;;12.30;99.90;;;;;;8253336;28;20052;-80
2022/09/09 21:08:01;;;;;;;1.08;0.65;;;12.30;99.90;;;;;;8264496;28;20062;-80
2022/09/09 21:12:01;;;;;;;0.82;0.47;;;12.10;99.90;;;;;;8263742;28;20035;-80
2022/09/09 21:16:04;;;;;;;1.77;0.40;;;12.10;99.90;;;;;;8262006;28;20037;-80
2022/09/09 21:20:06;;;;;;;1.48;0.45;;;12.10;99.90;;;;;;8249590;28;20042;-80